sensor_id;sensor_type;location;lat;lon;timestamp;temperature;humidity
10419;DHT22;5256;48.728;9.140;2023-07-20T00:01:27;18.10;99.90
10419;DHT22;5256;48.728;9.140;2023-07-20T00:03:53;18.00;99.90
10419;DHT22;5256;48.728;9.140;2023-07-20T00:06:24;18.00;99.90
10419;DHT22;5256;48.728;9.140;2023-07-20T00:08:54;18.00;99.90
10419;DHT22;5256;48.728;9.140;2023-07-20T00:11:20;17.90;99.90
10419;DHT22;5256;48.728;9.140;2023-07-20T00:13:46;17.90;99.90
10419;DHT22;5256;48.728;9.140;2023-07-20T00:16:11;17.90;99.90
10419;DHT22;5256;48.728;9.140;2023-07-20T00:18:37;17.90;99.90
10419;DHT22;5256;48.728;9.140;2023-07-20T00:21:02;17.80;99.90
10419;DHT22;5256;48.728;9.140;2023-07-20T00:23:28;17.80;99.90
10419;DHT22;5256;48.728;9.140;2023-07-20T00:25:54;17.70;99.90
10419;DHT22;5256;48.728;9.140;2023-07-20T00:28:20;17.60;99.90
10419;DHT22;5256;48.728;9.140;2023-07-20T00:30:45;17.60;99.90
10419;DHT22;5256;48.728;9.140;2023-07-20T00:33:11;17.60;99.90
10419;DHT22;5256;48.728;9.140;2023-07-20T00:35:38;17.50;99.90
10419;DHT22;5256;48.728;9.140;2023-07-20T00:38:04;17.40;99.90
10419;DHT22;5256;48.728;9.140;2023-07-20T00:40:37;17.30;99.90
10419;DHT22;5256;48.728;9.140;2023-07-20T00:43:03;17.20;99.90
10419;DHT22;5256;48.728;9.140;2023-07-20T00:45:29;17.10;99.90
10419;DHT22;5256;48.728;9.140;2023-07-20T00:47:55;16.90;99.90
10419;DHT22;5256;48.728;9.140;2023-07-20T00:50:21;16.80;99.90
10419;DHT22;5256;48.728;9.140;2023-07-20T00:52:46;16.80;99.90
10419;DHT22;5256;48.728;9.140;2023-07-20T00:55:12;16.80;99.90
10419;DHT22;5256;48.728;9.140;2023-07-20T00:57:38;16.70;99.90
10419;DHT22;5256;48.728;9.140;2023-07-20T01:00:04;16.70;99.90
10419;DHT22;5256;48.728;9.140;2023-07-20T01:02:30;16.70;99.90
10419;DHT22;5256;48.728;9.140;2023-07-20T01:04:56;16.80;99.90
10419;DHT22;5256;48.728;9.140;2023-07-20T01:07:31;16.80;99.90
10419;DHT22;5256;48.728;9.140;2023-07-20T01:10:14;16.70;99.90
10419;DHT22;5256;48.728;9.140;2023-07-20T01:12:46;16.70;99.90
10419;DHT22;5256;48.728;9.140;2023-07-20T01:15:12;16.70;99.90
10419;DHT22;5256;48.728;9.140;2023-07-20T01:17:38;16.70;99.90
10419;DHT22;5256;48.728;9.140;2023-07-20T01:20:05;16.70;99.90
10419;DHT22;5256;48.728;9.140;2023-07-20T01:26:27;16.70;99.90
10419;DHT22;5256;48.728;9.140;2023-07-20T01:31:42;16.50;99.90
10419;DHT22;5256;48.728;9.140;2023-07-20T01:34:11;16.40;99.90
10419;DHT22;5256;48.728;9.140;2023-07-20T01:36:42;16.40;99.90
10419;DHT22;5256;48.728;9.140;2023-07-20T01:39:09;16.30;99.90
10419;DHT22;5256;48.728;9.140;2023-07-20T01:41:34;16.20;99.90
10419;DHT22;5256;48.728;9.140;2023-07-20T01:44:00;16.30;99.90
10419;DHT22;5256;48.728;9.140;2023-07-20T01:46:26;16.40;99.90
10419;DHT22;5256;48.728;9.140;2023-07-20T01:48:52;16.40;99.90
10419;DHT22;5256;48.728;9.140;2023-07-20T01:51:18;16.40;99.90
10419;DHT22;5256;48.728;9.140;2023-07-20T01:53:44;16.50;99.90
10419;DHT22;5256;48.728;9.140;2023-07-20T01:56:09;16.50;99.90
10419;DHT22;5256;48.728;9.140;2023-07-20T01:58:37;16.50;99.90
10419;DHT22;5256;48.728;9.140;2023-07-20T02:01:03;16.40;99.90
10419;DHT22;5256;48.728;9.140;2023-07-20T02:03:29;16.40;99.90
10419;DHT22;5256;48.728;9.140;2023-07-20T02:05:54;16.40;99.90
10419;DHT22;5256;48.728;9.140;2023-07-20T02:08:20;16.40;99.90
10419;DHT22;5256;48.728;9.140;2023-07-20T02:10:47;16.50;99.90
10419;DHT22;5256;48.728;9.140;2023-07-20T02:13:13;16.40;99.90
10419;DHT22;5256;48.728;9.140;2023-07-20T02:15:38;16.40;99.90
10419;DHT22;5256;48.728;9.140;2023-07-20T02:18:04;16.40;99.90
10419;DHT22;5256;48.728;9.140;2023-07-20T02:20:29;16.30;99.90
10419;DHT22;5256;48.728;9.140;2023-07-20T02:22:55;16.30;99.90
10419;DHT22;5256;48.728;9.140;2023-07-20T02:25:21;16.30;99.90
10419;DHT22;5256;48.728;9.140;2023-07-20T02:27:47;16.20;99.90
10419;DHT22;5256;48.728;9.140;2023-07-20T02:30:12;16.20;99.90
10419;DHT22;5256;48.728;9.140;2023-07-20T02:32:38;16.20;99.90
10419;DHT22;5256;48.728;9.140;2023-07-20T02:35:05;16.10;99.90
10419;DHT22;5256;48.728;9.140;2023-07-20T02:37:30;16.10;99.90
10419;DHT22;5256;48.728;9.140;2023-07-20T02:39:56;16.10;99.90
10419;DHT22;5256;48.728;9.140;2023-07-20T02:42:21;16.00;99.90
10419;DHT22;5256;48.728;9.140;2023-07-20T02:44:48;16.00;99.90
10419;DHT22;5256;48.728;9.140;2023-07-20T02:47:14;16.00;99.90
10419;DHT22;5256;48.728;9.140;2023-07-20T02:49:39;16.00;99.90
10419;DHT22;5256;48.728;9.140;2023-07-20T02:52:05;15.90;99.90
10419;DHT22;5256;48.728;9.140;2023-07-20T02:54:30;15.90;99.90
10419;DHT22;5256;48.728;9.140;2023-07-20T02:56:56;15.90;99.90
10419;DHT22;5256;48.728;9.140;2023-07-20T02:59:22;15.90;99.90
10419;DHT22;5256;48.728;9.140;2023-07-20T03:01:47;15.90;99.90
10419;DHT22;5256;48.728;9.140;2023-07-20T03:04:13;15.90;99.90
10419;DHT22;5256;48.728;9.140;2023-07-20T03:06:38;15.80;99.90
10419;DHT22;5256;48.728;9.140;2023-07-20T03:09:04;15.80;99.90
10419;DHT22;5256;48.728;9.140;2023-07-20T03:11:30;15.90;99.90
10419;DHT22;5256;48.728;9.140;2023-07-20T03:13:55;15.80;99.90
10419;DHT22;5256;48.728;9.140;2023-07-20T03:16:23;15.80;99.90
10419;DHT22;5256;48.728;9.140;2023-07-20T03:18:50;15.90;99.90
10419;DHT22;5256;48.728;9.140;2023-07-20T03:21:16;15.90;99.90
10419;DHT22;5256;48.728;9.140;2023-07-20T03:23:42;15.90;99.90
10419;DHT22;5256;48.728;9.140;2023-07-20T03:26:08;16.00;99.90
10419;DHT22;5256;48.728;9.140;2023-07-20T03:28:37;16.00;99.90
10419;DHT22;5256;48.728;9.140;2023-07-20T03:31:03;16.00;99.90
10419;DHT22;5256;48.728;9.140;2023-07-20T03:33:30;16.00;99.90
10419;DHT22;5256;48.728;9.140;2023-07-20T03:35:56;16.10;99.90
10419;DHT22;5256;48.728;9.140;2023-07-20T03:38:22;16.00;99.90
10419;DHT22;5256;48.728;9.140;2023-07-20T03:40:50;16.00;99.90
10419;DHT22;5256;48.728;9.140;2023-07-20T03:43:16;16.00;99.90
10419;DHT22;5256;48.728;9.140;2023-07-20T03:45:42;15.90;99.90
10419;DHT22;5256;48.728;9.140;2023-07-20T03:48:07;15.90;99.90
10419;DHT22;5256;48.728;9.140;2023-07-20T03:50:33;15.90;99.90
10419;DHT22;5256;48.728;9.140;2023-07-20T03:52:59;15.80;99.90
10419;DHT22;5256;48.728;9.140;2023-07-20T03:55:24;15.80;99.90
10419;DHT22;5256;48.728;9.140;2023-07-20T03:57:50;15.80;99.90
10419;DHT22;5256;48.728;9.140;2023-07-20T04:00:17;15.90;99.90
10419;DHT22;5256;48.728;9.140;2023-07-20T04:02:42;15.90;99.90
10419;DHT22;5256;48.728;9.140;2023-07-20T04:05:08;16.00;99.90
10419;DHT22;5256;48.728;9.140;2023-07-20T04:07:34;16.00;99.90
10419;DHT22;5256;48.728;9.140;2023-07-20T04:09:59;16.10;99.90
10419;DHT22;5256;48.728;9.140;2023-07-20T04:12:25;16.10;99.90
10419;DHT22;5256;48.728;9.140;2023-07-20T04:14:50;16.20;99.90
10419;DHT22;5256;48.728;9.140;2023-07-20T04:17:16;16.40;99.90
10419;DHT22;5256;48.728;9.140;2023-07-20T04:19:42;16.60;99.90
10419;DHT22;5256;48.728;9.140;2023-07-20T04:22:08;16.80;99.90
10419;DHT22;5256;48.728;9.140;2023-07-20T04:24:33;17.00;99.90
10419;DHT22;5256;48.728;9.140;2023-07-20T04:26:59;17.30;99.90
10419;DHT22;5256;48.728;9.140;2023-07-20T04:29:24;17.70;99.90
10419;DHT22;5256;48.728;9.140;2023-07-20T04:31:50;17.90;99.90
10419;DHT22;5256;48.728;9.140;2023-07-20T04:34:15;17.90;99.90
10419;DHT22;5256;48.728;9.140;2023-07-20T04:36:41;17.80;99.90
10419;DHT22;5256;48.728;9.140;2023-07-20T04:39:06;17.90;99.90
10419;DHT22;5256;48.728;9.140;2023-07-20T04:41:33;17.90;99.90
10419;DHT22;5256;48.728;9.140;2023-07-20T04:43:59;17.90;99.90
10419;DHT22;5256;48.728;9.140;2023-07-20T04:46:25;17.90;99.90
10419;DHT22;5256;48.728;9.140;2023-07-20T04:48:50;18.00;99.90
10419;DHT22;5256;48.728;9.140;2023-07-20T04:51:16;18.10;99.90
10419;DHT22;5256;48.728;9.140;2023-07-20T04:53:49;18.20;99.90
10419;DHT22;5256;48.728;9.140;2023-07-20T04:56:14;18.30;99.90
10419;DHT22;5256;48.728;9.140;2023-07-20T04:58:40;18.30;99.90
10419;DHT22;5256;48.728;9.140;2023-07-20T05:01:05;18.40;99.90
10419;DHT22;5256;48.728;9.140;2023-07-20T05:03:31;18.30;99.90
10419;DHT22;5256;48.728;9.140;2023-07-20T05:05:57;18.30;99.90
10419;DHT22;5256;48.728;9.140;2023-07-20T05:08:23;18.20;99.90
10419;DHT22;5256;48.728;9.140;2023-07-20T05:10:48;18.20;99.90
10419;DHT22;5256;48.728;9.140;2023-07-20T05:13:14;18.20;99.90
10419;DHT22;5256;48.728;9.140;2023-07-20T05:15:40;18.20;99.90
10419;DHT22;5256;48.728;9.140;2023-07-20T05:18:05;18.20;99.90
10419;DHT22;5256;48.728;9.140;2023-07-20T05:20:31;18.10;99.90
10419;DHT22;5256;48.728;9.140;2023-07-20T05:22:59;18.20;99.90
10419;DHT22;5256;48.728;9.140;2023-07-20T05:25:24;18.30;99.90
10419;DHT22;5256;48.728;9.140;2023-07-20T05:27:51;18.20;99.90
10419;DHT22;5256;48.728;9.140;2023-07-20T05:30:17;18.40;99.90
10419;DHT22;5256;48.728;9.140;2023-07-20T05:32:44;18.60;99.90
10419;DHT22;5256;48.728;9.140;2023-07-20T05:35:13;18.90;99.90
10419;DHT22;5256;48.728;9.140;2023-07-20T05:37:39;19.20;99.90
10419;DHT22;5256;48.728;9.140;2023-07-20T05:40:05;19.30;99.90
10419;DHT22;5256;48.728;9.140;2023-07-20T05:42:33;19.30;99.90
10419;DHT22;5256;48.728;9.140;2023-07-20T05:44:58;19.30;99.90
10419;DHT22;5256;48.728;9.140;2023-07-20T05:47:24;19.20;99.90
10419;DHT22;5256;48.728;9.140;2023-07-20T05:49:49;19.10;99.90
10419;DHT22;5256;48.728;9.140;2023-07-20T05:52:15;19.20;99.90
10419;DHT22;5256;48.728;9.140;2023-07-20T05:54:40;19.20;99.90
10419;DHT22;5256;48.728;9.140;2023-07-20T05:57:06;19.10;99.90
10419;DHT22;5256;48.728;9.140;2023-07-20T05:59:32;19.20;99.90
10419;DHT22;5256;48.728;9.140;2023-07-20T06:01:57;19.10;99.90
10419;DHT22;5256;48.728;9.140;2023-07-20T06:04:23;19.00;99.90
10419;DHT22;5256;48.728;9.140;2023-07-20T06:06:49;19.10;99.90
10419;DHT22;5256;48.728;9.140;2023-07-20T06:09:14;19.20;99.90
10419;DHT22;5256;48.728;9.140;2023-07-20T06:11:40;19.20;99.90
10419;DHT22;5256;48.728;9.140;2023-07-20T06:14:06;19.20;99.90
10419;DHT22;5256;48.728;9.140;2023-07-20T06:16:32;19.30;99.90
10419;DHT22;5256;48.728;9.140;2023-07-20T06:18:59;19.40;99.90
10419;DHT22;5256;48.728;9.140;2023-07-20T06:21:25;19.40;99.90
10419;DHT22;5256;48.728;9.140;2023-07-20T06:23:50;19.50;99.90
10419;DHT22;5256;48.728;9.140;2023-07-20T06:26:16;19.70;99.90
10419;DHT22;5256;48.728;9.140;2023-07-20T06:28:41;19.70;99.90
10419;DHT22;5256;48.728;9.140;2023-07-20T06:31:07;19.70;99.90
10419;DHT22;5256;48.728;9.140;2023-07-20T06:33:33;19.80;99.90
10419;DHT22;5256;48.728;9.140;2023-07-20T06:36:00;19.90;99.90
10419;DHT22;5256;48.728;9.140;2023-07-20T06:38:25;20.10;99.90
10419;DHT22;5256;48.728;9.140;2023-07-20T06:40:51;20.00;99.90
10419;DHT22;5256;48.728;9.140;2023-07-20T06:43:17;20.10;99.90
10419;DHT22;5256;48.728;9.140;2023-07-20T06:45:42;20.10;99.90
10419;DHT22;5256;48.728;9.140;2023-07-20T06:48:08;20.30;99.90
10419;DHT22;5256;48.728;9.140;2023-07-20T06:50:34;20.40;99.90
10419;DHT22;5256;48.728;9.140;2023-07-20T06:53:00;20.60;99.90
10419;DHT22;5256;48.728;9.140;2023-07-20T06:55:28;20.70;99.90
10419;DHT22;5256;48.728;9.140;2023-07-20T06:57:54;20.90;99.90
10419;DHT22;5256;48.728;9.140;2023-07-20T07:00:19;20.90;99.90
10419;DHT22;5256;48.728;9.140;2023-07-20T07:02:45;20.80;99.90
10419;DHT22;5256;48.728;9.140;2023-07-20T07:05:10;20.90;99.90
10419;DHT22;5256;48.728;9.140;2023-07-20T07:07:36;21.20;99.90
10419;DHT22;5256;48.728;9.140;2023-07-20T07:10:02;21.40;99.90
10419;DHT22;5256;48.728;9.140;2023-07-20T07:12:30;21.70;99.90
10419;DHT22;5256;48.728;9.140;2023-07-20T07:14:55;22.10;99.90
10419;DHT22;5256;48.728;9.140;2023-07-20T07:17:21;22.60;99.40
10419;DHT22;5256;48.728;9.140;2023-07-20T07:19:46;22.70;98.80
10419;DHT22;5256;48.728;9.140;2023-07-20T07:22:12;22.50;99.00
10419;DHT22;5256;48.728;9.140;2023-07-20T07:24:39;22.40;99.30
10419;DHT22;5256;48.728;9.140;2023-07-20T07:27:08;22.50;98.50
10419;DHT22;5256;48.728;9.140;2023-07-20T07:29:34;22.80;98.80
10419;DHT22;5256;48.728;9.140;2023-07-20T07:31:59;23.10;98.30
10419;DHT22;5256;48.728;9.140;2023-07-20T07:34:25;23.40;97.90
10419;DHT22;5256;48.728;9.140;2023-07-20T07:36:51;23.90;97.40
10419;DHT22;5256;48.728;9.140;2023-07-20T07:39:17;24.10;97.00
10419;DHT22;5256;48.728;9.140;2023-07-20T07:41:42;23.90;96.80
10419;DHT22;5256;48.728;9.140;2023-07-20T07:44:08;23.80;97.10
10419;DHT22;5256;48.728;9.140;2023-07-20T07:46:33;23.80;97.10
10419;DHT22;5256;48.728;9.140;2023-07-20T07:48:59;24.20;96.80
10419;DHT22;5256;48.728;9.140;2023-07-20T07:51:25;24.50;96.50
10419;DHT22;5256;48.728;9.140;2023-07-20T07:53:52;24.00;96.10
10419;DHT22;5256;48.728;9.140;2023-07-20T07:56:17;23.20;96.50
10419;DHT22;5256;48.728;9.140;2023-07-20T07:58:48;22.80;97.30
10419;DHT22;5256;48.728;9.140;2023-07-20T08:01:13;22.50;97.20
10419;DHT22;5256;48.728;9.140;2023-07-20T08:03:40;22.40;97.20
10419;DHT22;5256;48.728;9.140;2023-07-20T08:06:05;22.30;97.10
10419;DHT22;5256;48.728;9.140;2023-07-20T08:08:32;22.20;97.30
10419;DHT22;5256;48.728;9.140;2023-07-20T08:10:58;22.60;97.20
10419;DHT22;5256;48.728;9.140;2023-07-20T08:13:24;23.20;97.50
10419;DHT22;5256;48.728;9.140;2023-07-20T08:15:51;23.80;96.70
10419;DHT22;5256;48.728;9.140;2023-07-20T08:18:19;24.20;96.10
10419;DHT22;5256;48.728;9.140;2023-07-20T08:20:45;24.20;95.40
10419;DHT22;5256;48.728;9.140;2023-07-20T08:23:12;24.10;95.50
10419;DHT22;5256;48.728;9.140;2023-07-20T08:25:37;23.40;95.40
10419;DHT22;5256;48.728;9.140;2023-07-20T08:28:05;23.40;95.20
10419;DHT22;5256;48.728;9.140;2023-07-20T08:30:40;23.80;95.50
10419;DHT22;5256;48.728;9.140;2023-07-20T08:33:06;24.80;94.80
10419;DHT22;5256;48.728;9.140;2023-07-20T08:35:32;25.40;93.80
10419;DHT22;5256;48.728;9.140;2023-07-20T08:37:57;25.90;93.30
10419;DHT22;5256;48.728;9.140;2023-07-20T08:40:23;25.90;92.50
10419;DHT22;5256;48.728;9.140;2023-07-20T08:42:49;25.50;92.40
10419;DHT22;5256;48.728;9.140;2023-07-20T08:45:16;24.90;93.00
10419;DHT22;5256;48.728;9.140;2023-07-20T08:47:43;24.60;93.40
10419;DHT22;5256;48.728;9.140;2023-07-20T08:50:11;23.90;93.80
10419;DHT22;5256;48.728;9.140;2023-07-20T08:52:38;23.30;94.20
10419;DHT22;5256;48.728;9.140;2023-07-20T08:55:03;23.20;94.50
10419;DHT22;5256;48.728;9.140;2023-07-20T08:57:32;23.00;94.70
10419;DHT22;5256;48.728;9.140;2023-07-20T09:00:00;22.80;94.90
10419;DHT22;5256;48.728;9.140;2023-07-20T09:02:26;23.30;94.40
10419;DHT22;5256;48.728;9.140;2023-07-20T09:04:52;24.10;94.40
10419;DHT22;5256;48.728;9.140;2023-07-20T09:07:19;24.80;93.30
10419;DHT22;5256;48.728;9.140;2023-07-20T09:09:45;25.70;93.00
10419;DHT22;5256;48.728;9.140;2023-07-20T09:12:15;26.20;92.00
10419;DHT22;5256;48.728;9.140;2023-07-20T09:14:43;26.60;91.70
10419;DHT22;5256;48.728;9.140;2023-07-20T09:17:13;26.60;90.80
10419;DHT22;5256;48.728;9.140;2023-07-20T09:19:45;25.90;91.10
10419;DHT22;5256;48.728;9.140;2023-07-20T09:22:11;25.10;91.00
10419;DHT22;5256;48.728;9.140;2023-07-20T09:24:36;25.20;91.50
10419;DHT22;5256;48.728;9.140;2023-07-20T09:27:02;26.10;91.10
10419;DHT22;5256;48.728;9.140;2023-07-20T09:29:30;26.60;90.60
10419;DHT22;5256;48.728;9.140;2023-07-20T09:32:03;26.70;90.50
10419;DHT22;5256;48.728;9.140;2023-07-20T09:34:30;26.50;90.00
10419;DHT22;5256;48.728;9.140;2023-07-20T09:36:59;25.70;90.20
10419;DHT22;5256;48.728;9.140;2023-07-20T09:39:25;24.80;91.20
10419;DHT22;5256;48.728;9.140;2023-07-20T09:41:51;23.80;91.60
10419;DHT22;5256;48.728;9.140;2023-07-20T09:44:17;23.20;92.10
10419;DHT22;5256;48.728;9.140;2023-07-20T09:46:48;23.00;92.30
10419;DHT22;5256;48.728;9.140;2023-07-20T09:49:14;22.80;92.50
10419;DHT22;5256;48.728;9.140;2023-07-20T09:51:44;23.00;92.00
10419;DHT22;5256;48.728;9.140;2023-07-20T09:54:10;23.40;91.90
10419;DHT22;5256;48.728;9.140;2023-07-20T09:56:38;23.50;91.10
10419;DHT22;5256;48.728;9.140;2023-07-20T09:59:04;23.60;91.50
10419;DHT22;5256;48.728;9.140;2023-07-20T10:01:30;23.90;91.30
10419;DHT22;5256;48.728;9.140;2023-07-20T10:03:58;24.70;91.50
10419;DHT22;5256;48.728;9.140;2023-07-20T10:06:24;25.70;90.80
10419;DHT22;5256;48.728;9.140;2023-07-20T10:08:53;26.10;90.00
10419;DHT22;5256;48.728;9.140;2023-07-20T10:11:22;26.70;89.50
10419;DHT22;5256;48.728;9.140;2023-07-20T10:13:51;27.40;86.90
10419;DHT22;5256;48.728;9.140;2023-07-20T10:16:39;27.70;86.00
10419;DHT22;5256;48.728;9.140;2023-07-20T10:19:13;27.30;83.80
10419;DHT22;5256;48.728;9.140;2023-07-20T10:21:47;26.60;85.80
10419;DHT22;5256;48.728;9.140;2023-07-20T10:24:13;26.10;87.90
10419;DHT22;5256;48.728;9.140;2023-07-20T10:26:39;25.60;87.60
10419;DHT22;5256;48.728;9.140;2023-07-20T10:29:05;25.30;88.50
10419;DHT22;5256;48.728;9.140;2023-07-20T10:31:32;25.00;88.00
10419;DHT22;5256;48.728;9.140;2023-07-20T10:33:58;25.20;87.80
10419;DHT22;5256;48.728;9.140;2023-07-20T10:36:27;25.90;88.50
10419;DHT22;5256;48.728;9.140;2023-07-20T10:38:54;26.60;86.00
10419;DHT22;5256;48.728;9.140;2023-07-20T10:41:22;26.80;85.40
10419;DHT22;5256;48.728;9.140;2023-07-20T10:44:01;27.00;85.00
10419;DHT22;5256;48.728;9.140;2023-07-20T10:46:45;27.00;83.10
10419;DHT22;5256;48.728;9.140;2023-07-20T10:49:12;27.40;83.80
10419;DHT22;5256;48.728;9.140;2023-07-20T10:51:47;28.10;83.60
10419;DHT22;5256;48.728;9.140;2023-07-20T10:56:43;27.10;81.80
10419;DHT22;5256;48.728;9.140;2023-07-20T11:01:48;26.50;81.80
10419;DHT22;5256;48.728;9.140;2023-07-20T11:04:17;26.50;81.50
10419;DHT22;5256;48.728;9.140;2023-07-20T11:06:45;27.00;81.80
10419;DHT22;5256;48.728;9.140;2023-07-20T11:09:12;26.90;81.50
10419;DHT22;5256;48.728;9.140;2023-07-20T11:11:46;26.90;81.90
10419;DHT22;5256;48.728;9.140;2023-07-20T11:14:25;26.60;80.30
10419;DHT22;5256;48.728;9.140;2023-07-20T11:16:52;26.30;79.60
10419;DHT22;5256;48.728;9.140;2023-07-20T11:19:22;26.10;81.30
10419;DHT22;5256;48.728;9.140;2023-07-20T11:21:55;26.30;80.80
10419;DHT22;5256;48.728;9.140;2023-07-20T11:24:22;26.40;79.70
10419;DHT22;5256;48.728;9.140;2023-07-20T11:26:49;26.20;78.90
10419;DHT22;5256;48.728;9.140;2023-07-20T11:29:19;26.20;80.10
10419;DHT22;5256;48.728;9.140;2023-07-20T11:31:46;26.40;81.40
10419;DHT22;5256;48.728;9.140;2023-07-20T11:34:14;26.60;78.60
10419;DHT22;5256;48.728;9.140;2023-07-20T11:36:45;26.30;78.10
10419;DHT22;5256;48.728;9.140;2023-07-20T11:39:13;25.80;78.20
10419;DHT22;5256;48.728;9.140;2023-07-20T11:41:53;25.70;78.90
10419;DHT22;5256;48.728;9.140;2023-07-20T11:44:21;25.50;80.10
10419;DHT22;5256;48.728;9.140;2023-07-20T11:47:11;25.40;78.80
10419;DHT22;5256;48.728;9.140;2023-07-20T11:49:41;25.20;79.20
10419;DHT22;5256;48.728;9.140;2023-07-20T11:52:13;25.00;81.40
10419;DHT22;5256;48.728;9.140;2023-07-20T11:54:41;24.90;79.70
10419;DHT22;5256;48.728;9.140;2023-07-20T11:57:16;24.80;79.30
10419;DHT22;5256;48.728;9.140;2023-07-20T11:59:53;24.60;79.70
10419;DHT22;5256;48.728;9.140;2023-07-20T12:02:21;24.60;79.90
10419;DHT22;5256;48.728;9.140;2023-07-20T12:04:47;24.70;80.60
10419;DHT22;5256;48.728;9.140;2023-07-20T12:07:13;24.70;79.20
10419;DHT22;5256;48.728;9.140;2023-07-20T12:09:39;24.60;78.90
10419;DHT22;5256;48.728;9.140;2023-07-20T12:12:09;24.70;80.10
10419;DHT22;5256;48.728;9.140;2023-07-20T12:14:37;25.00;78.40
10419;DHT22;5256;48.728;9.140;2023-07-20T12:17:02;25.10;78.50
10419;DHT22;5256;48.728;9.140;2023-07-20T12:19:28;25.00;78.70
10419;DHT22;5256;48.728;9.140;2023-07-20T12:21:57;25.10;79.50
10419;DHT22;5256;48.728;9.140;2023-07-20T12:24:24;25.20;80.40
10419;DHT22;5256;48.728;9.140;2023-07-20T12:26:56;25.40;78.60
10419;DHT22;5256;48.728;9.140;2023-07-20T12:29:25;25.40;78.40
10419;DHT22;5256;48.728;9.140;2023-07-20T12:31:51;25.40;77.60
10419;DHT22;5256;48.728;9.140;2023-07-20T12:34:17;25.20;77.50
10419;DHT22;5256;48.728;9.140;2023-07-20T12:36:43;25.20;77.80
10419;DHT22;5256;48.728;9.140;2023-07-20T12:39:08;25.10;77.60
10419;DHT22;5256;48.728;9.140;2023-07-20T12:41:35;25.00;77.30
10419;DHT22;5256;48.728;9.140;2023-07-20T12:44:24;25.10;78.10
10419;DHT22;5256;48.728;9.140;2023-07-20T12:46:52;25.00;78.70
10419;DHT22;5256;48.728;9.140;2023-07-20T12:49:17;25.00;79.40
10419;DHT22;5256;48.728;9.140;2023-07-20T12:51:43;25.10;78.50
10419;DHT22;5256;48.728;9.140;2023-07-20T12:54:08;25.20;78.90
10419;DHT22;5256;48.728;9.140;2023-07-20T12:56:34;25.10;77.30
10419;DHT22;5256;48.728;9.140;2023-07-20T12:58:59;25.00;76.60
10419;DHT22;5256;48.728;9.140;2023-07-20T13:01:27;25.00;78.00
10419;DHT22;5256;48.728;9.140;2023-07-20T13:03:53;25.10;78.20
10419;DHT22;5256;48.728;9.140;2023-07-20T13:06:19;25.20;77.70
10419;DHT22;5256;48.728;9.140;2023-07-20T13:08:45;25.20;77.70
10419;DHT22;5256;48.728;9.140;2023-07-20T13:11:10;25.30;78.00
10419;DHT22;5256;48.728;9.140;2023-07-20T13:13:36;25.50;79.50
10419;DHT22;5256;48.728;9.140;2023-07-20T13:16:01;25.70;77.60
10419;DHT22;5256;48.728;9.140;2023-07-20T13:18:27;25.50;76.80
10419;DHT22;5256;48.728;9.140;2023-07-20T13:20:52;25.40;79.00
10419;DHT22;5256;48.728;9.140;2023-07-20T13:23:18;25.50;76.30
10419;DHT22;5256;48.728;9.140;2023-07-20T13:25:43;25.40;77.10
10419;DHT22;5256;48.728;9.140;2023-07-20T13:28:09;25.30;77.10
10419;DHT22;5256;48.728;9.140;2023-07-20T13:30:35;25.30;77.90
10419;DHT22;5256;48.728;9.140;2023-07-20T13:33:00;25.40;76.50
10419;DHT22;5256;48.728;9.140;2023-07-20T13:35:26;25.40;77.40
10419;DHT22;5256;48.728;9.140;2023-07-20T13:37:51;25.50;75.60
10419;DHT22;5256;48.728;9.140;2023-07-20T13:40:17;25.50;76.70
10419;DHT22;5256;48.728;9.140;2023-07-20T13:42:44;25.70;76.20
10419;DHT22;5256;48.728;9.140;2023-07-20T13:45:10;26.10;76.80
10419;DHT22;5256;48.728;9.140;2023-07-20T13:47:36;26.40;75.10
10419;DHT22;5256;48.728;9.140;2023-07-20T13:50:01;26.70;74.70
10419;DHT22;5256;48.728;9.140;2023-07-20T13:52:27;26.70;74.70
10419;DHT22;5256;48.728;9.140;2023-07-20T13:54:52;27.20;75.30
10419;DHT22;5256;48.728;9.140;2023-07-20T13:57:18;27.40;72.40
10419;DHT22;5256;48.728;9.140;2023-07-20T13:59:43;27.30;73.30
10419;DHT22;5256;48.728;9.140;2023-07-20T14:02:10;27.20;72.10
10419;DHT22;5256;48.728;9.140;2023-07-20T14:04:36;27.10;71.20
10419;DHT22;5256;48.728;9.140;2023-07-20T14:07:01;27.20;71.50
10419;DHT22;5256;48.728;9.140;2023-07-20T14:09:27;27.20;72.00
10419;DHT22;5256;48.728;9.140;2023-07-20T14:11:53;27.70;72.90
10419;DHT22;5256;48.728;9.140;2023-07-20T14:14:18;28.10;69.50
10419;DHT22;5256;48.728;9.140;2023-07-20T14:16:44;28.40;70.00
10419;DHT22;5256;48.728;9.140;2023-07-20T14:19:09;28.60;69.50
10419;DHT22;5256;48.728;9.140;2023-07-20T14:21:35;28.80;68.80
10419;DHT22;5256;48.728;9.140;2023-07-20T14:24:00;29.20;68.00
10419;DHT22;5256;48.728;9.140;2023-07-20T14:26:27;29.50;67.40
10419;DHT22;5256;48.728;9.140;2023-07-20T14:28:52;29.70;67.80
10419;DHT22;5256;48.728;9.140;2023-07-20T14:31:18;30.00;67.00
10419;DHT22;5256;48.728;9.140;2023-07-20T14:33:45;30.40;66.20
10419;DHT22;5256;48.728;9.140;2023-07-20T14:36:10;30.50;66.00
10419;DHT22;5256;48.728;9.140;2023-07-20T14:38:36;30.30;65.90
10419;DHT22;5256;48.728;9.140;2023-07-20T14:41:02;30.30;66.80
10419;DHT22;5256;48.728;9.140;2023-07-20T14:43:27;29.50;65.60
10419;DHT22;5256;48.728;9.140;2023-07-20T14:45:53;28.20;67.00
10419;DHT22;5256;48.728;9.140;2023-07-20T14:48:19;28.20;65.70
10419;DHT22;5256;48.728;9.140;2023-07-20T14:50:45;27.60;66.70
10419;DHT22;5256;48.728;9.140;2023-07-20T14:53:13;27.40;67.80
10419;DHT22;5256;48.728;9.140;2023-07-20T14:55:38;28.10;68.00
10419;DHT22;5256;48.728;9.140;2023-07-20T14:58:04;28.60;66.10
10419;DHT22;5256;48.728;9.140;2023-07-20T15:00:30;29.30;66.50
10419;DHT22;5256;48.728;9.140;2023-07-20T15:02:56;29.80;65.50
10419;DHT22;5256;48.728;9.140;2023-07-20T15:05:22;30.30;64.70
10419;DHT22;5256;48.728;9.140;2023-07-20T15:07:49;30.70;66.40
10419;DHT22;5256;48.728;9.140;2023-07-20T15:10:15;31.10;65.40
10419;DHT22;5256;48.728;9.140;2023-07-20T15:12:41;31.00;65.50
10419;DHT22;5256;48.728;9.140;2023-07-20T15:15:09;30.90;63.50
10419;DHT22;5256;48.728;9.140;2023-07-20T15:17:36;30.00;64.60
10419;DHT22;5256;48.728;9.140;2023-07-20T15:20:04;30.50;64.40
10419;DHT22;5256;48.728;9.140;2023-07-20T15:22:30;30.40;64.80
10419;DHT22;5256;48.728;9.140;2023-07-20T15:24:56;30.50;64.00
10419;DHT22;5256;48.728;9.140;2023-07-20T15:27:22;30.60;63.80
10419;DHT22;5256;48.728;9.140;2023-07-20T15:29:49;30.10;64.20
10419;DHT22;5256;48.728;9.140;2023-07-20T15:32:15;29.60;64.10
10419;DHT22;5256;48.728;9.140;2023-07-20T15:34:42;29.80;62.60
10419;DHT22;5256;48.728;9.140;2023-07-20T15:37:08;29.70;63.80
10419;DHT22;5256;48.728;9.140;2023-07-20T15:39:35;30.00;63.50
10419;DHT22;5256;48.728;9.140;2023-07-20T15:42:01;30.20;62.70
10419;DHT22;5256;48.728;9.140;2023-07-20T15:44:27;29.80;63.50
10419;DHT22;5256;48.728;9.140;2023-07-20T15:46:53;30.10;63.40
10419;DHT22;5256;48.728;9.140;2023-07-20T15:49:18;30.60;63.80
10419;DHT22;5256;48.728;9.140;2023-07-20T15:51:44;30.60;62.70
10419;DHT22;5256;48.728;9.140;2023-07-20T15:54:12;31.00;62.00